Aegean Orion — SVA2487 — position and weather

sailwx.info

Track history (hours):
 
Tides and Currents Weather Stations Pressure Air Temp Water Temp Dewpoint Dewpoint Depression Visibility Wind Speed Wind Dir Waves Ship Positions

Aegean Orion

Last reported at 2015-Jan-27 10:34 UTC. Time now 2015-Jan-27 18:53 UTC.
Position N 38°01' E 023°32'.

; draft 2.4 m.

Type: Ship. MMSI: 239550200.

Date/timePositionNaut miles runAvg speedWind from/ knotsBaromVisibWave heightAir tempDewpointWater temp
2015-Jan-27 10:34N 38°01' E 023°32'6 6.4
2015-Jan-27 09:34N 37°56' E 023°38'0 0.3
2015-Jan-27 08:34N 37°57' E 023°38'0 0.0
2015-Jan-27 07:34N 37°57' E 023°38'1 0.9
2015-Jan-27 06:34N 37°56' E 023°37'5 5.1
2015-Jan-27 05:33N 37°60' E 023°33'2 0.2
2015-Jan-26 16:27N 38°02' E 023°32'4 5.0
2015-Jan-26 15:33N 37°58' E 023°33'5 4.6
2015-Jan-26 14:33N 37°57' E 023°38'0 0.0
2015-Jan-26 13:33N 37°57' E 023°38'3 3.4
2015-Jan-26 12:33N 37°57' E 023°34'5 5.5
2015-Jan-26 11:33N 38°02' E 023°32'0 0.0
2015-Jan-26 10:33N 38°02' E 023°32'0 0.0
2015-Jan-26 09:32N 38°02' E 023°32'0 0.0
2015-Jan-26 08:32N 38°02' E 023°32'0 0.0
2015-Jan-26 07:32N 38°02' E 023°32'  
2015-Jan-22 15:33N 37°59' E 023°33'5 5.1
2015-Jan-22 14:33N 37°57' E 023°38'0 0.0
2015-Jan-22 13:33N 37°57' E 023°38'1 1.3
2015-Jan-22 12:33N 37°56' E 023°37'0 0.5
2015-Jan-22 11:33N 37°56' E 023°37'0 0.0
2015-Jan-22 10:34N 37°56' E 023°37'0 0.0
2015-Jan-22 09:33N 37°56' E 023°37'0 0.0
2015-Jan-22 08:33N 37°56' E 023°38'2 1.5
2015-Jan-22 07:33N 37°57' E 023°36'6 5.9
2015-Jan-22 06:33N 38°02' E 023°32'1 0.1
2015-Jan-21 18:29N 38°02' E 023°31'0 0.1
2015-Jan-21 17:34N 38°02' E 023°31'0 0.0
2015-Jan-21 16:33N 38°02' E 023°31'0 0.0
2015-Jan-21 15:33N 38°02' E 023°31'0 0.0
2015-Jan-21 14:33N 38°02' E 023°31'0 0.0
2015-Jan-21 13:33N 38°02' E 023°31'0 0.0
2015-Jan-21 12:33N 38°02' E 023°31'0 0.0
2015-Jan-21 11:33N 38°02' E 023°31'0 0.0
2015-Jan-21 10:33N 38°02' E 023°31'0 0.4
2015-Jan-21 09:33N 38°02' E 023°31'0 0.1
2015-Jan-21 08:33N 38°02' E 023°31'0 0.0
2015-Jan-21 07:33N 38°02' E 023°31'0 0.0
2015-Jan-21 06:33N 38°02' E 023°31'0 0.2
2015-Jan-21 05:33N 38°02' E 023°31'2 0.0
2015-Jan-19 15:34N 38°01' E 023°32'6 6.2
2015-Jan-19 14:34N 37°57' E 023°38'0 0.1
2015-Jan-19 13:33N 37°57' E 023°38'1 0.8
2015-Jan-19 12:33N 37°56' E 023°38'0 0.2
2015-Jan-19 11:33N 37°57' E 023°38'0 0.2
2015-Jan-19 10:33N 37°56' E 023°38'0 0.0
2015-Jan-19 09:34N 37°56' E 023°38'0 0.0
2015-Jan-19 08:33N 37°56' E 023°38'1 1.5
2015-Jan-19 07:33N 37°57' E 023°36'6 5.3
2015-Jan-19 06:23N 38°02' E 023°32'1 0.0
2015-Jan-18 07:11N 38°02' E 023°31'0 0.0
2015-Jan-18 06:33N 38°02' E 023°31'1 0.6
2015-Jan-18 05:23N 38°02' E 023°32'  
Track history (hours):
 
Tides and Currents Weather Stations Pressure Air Temp Water Temp Dewpoint Dewpoint Depression Visibility Wind Speed Wind Dir Waves Ship Positions

Aegean Orion

Last reported at 2015-Jan-27 10:34 UTC. Time now 2015-Jan-27 18:53 UTC.
Position N 38°01' E 023°32'.

; draft 2.4 m.

Type: Ship. MMSI: 239550200.

Date/timePositionNaut miles runAvg speedWind from/ knotsBaromVisibWave heightAir tempDewpointWater temp
2015-Jan-27 10:34N 38°01' E 023°32'6 6.4
2015-Jan-27 09:34N 37°56' E 023°38'0 0.3
2015-Jan-27 08:34N 37°57' E 023°38'0 0.0
2015-Jan-27 07:34N 37°57' E 023°38'1 0.9
2015-Jan-27 06:34N 37°56' E 023°37'5 5.1
2015-Jan-27 05:33N 37°60' E 023°33'2 0.2
2015-Jan-26 16:27N 38°02' E 023°32'4 5.0
2015-Jan-26 15:33N 37°58' E 023°33'5 4.6
2015-Jan-26 14:33N 37°57' E 023°38'0 0.0
2015-Jan-26 13:33N 37°57' E 023°38'3 3.4
2015-Jan-26 12:33N 37°57' E 023°34'5 5.5
2015-Jan-26 11:33N 38°02' E 023°32'0 0.0
2015-Jan-26 10:33N 38°02' E 023°32'0 0.0
2015-Jan-26 09:32N 38°02' E 023°32'0 0.0
2015-Jan-26 08:32N 38°02' E 023°32'0 0.0
2015-Jan-26 07:32N 38°02' E 023°32'  
2015-Jan-22 15:33N 37°59' E 023°33'5 5.1
2015-Jan-22 14:33N 37°57' E 023°38'0 0.0
2015-Jan-22 13:33N 37°57' E 023°38'1 1.3
2015-Jan-22 12:33N 37°56' E 023°37'0 0.5
2015-Jan-22 11:33N 37°56' E 023°37'0 0.0
2015-Jan-22 10:34N 37°56' E 023°37'0 0.0
2015-Jan-22 09:33N 37°56' E 023°37'0 0.0
2015-Jan-22 08:33N 37°56' E 023°38'2 1.5
2015-Jan-22 07:33N 37°57' E 023°36'6 5.9
2015-Jan-22 06:33N 38°02' E 023°32'1 0.1
2015-Jan-21 18:29N 38°02' E 023°31'0 0.1
2015-Jan-21 17:34N 38°02' E 023°31'0 0.0
2015-Jan-21 16:33N 38°02' E 023°31'0 0.0
2015-Jan-21 15:33N 38°02' E 023°31'0 0.0
2015-Jan-21 14:33N 38°02' E 023°31'0 0.0
2015-Jan-21 13:33N 38°02' E 023°31'0 0.0
2015-Jan-21 12:33N 38°02' E 023°31'0 0.0
2015-Jan-21 11:33N 38°02' E 023°31'0 0.0
2015-Jan-21 10:33N 38°02' E 023°31'0 0.4
2015-Jan-21 09:33N 38°02' E 023°31'0 0.1
2015-Jan-21 08:33N 38°02' E 023°31'0 0.0
2015-Jan-21 07:33N 38°02' E 023°31'0 0.0
2015-Jan-21 06:33N 38°02' E 023°31'0 0.2
2015-Jan-21 05:33N 38°02' E 023°31'2 0.0
2015-Jan-19 15:34N 38°01' E 023°32'6 6.2
2015-Jan-19 14:34N 37°57' E 023°38'0 0.1
2015-Jan-19 13:33N 37°57' E 023°38'1 0.8
2015-Jan-19 12:33N 37°56' E 023°38'0 0.2
2015-Jan-19 11:33N 37°57' E 023°38'0 0.2
2015-Jan-19 10:33N 37°56' E 023°38'0 0.0
2015-Jan-19 09:34N 37°56' E 023°38'0 0.0
2015-Jan-19 08:33N 37°56' E 023°38'1 1.5
2015-Jan-19 07:33N 37°57' E 023°36'6 5.3
2015-Jan-19 06:23N 38°02' E 023°32'1 0.0
2015-Jan-18 07:11N 38°02' E 023°31'0 0.0
2015-Jan-18 06:33N 38°02' E 023°31'1 0.6
2015-Jan-18 05:23N 38°02' E 023°32'  

Dump ship's entire track history